createdAt,value
2018-05-26T00:01:27.814Z,81.76
2018-05-26T00:03:57.194Z,81.88
2018-05-26T00:06:25.882Z,81.59
2018-05-26T00:08:54.211Z,81.67
2018-05-26T00:11:23.394Z,82.19
2018-05-26T00:13:52.499Z,82.76
2018-05-26T00:16:22.233Z,82.76
2018-05-26T00:18:50.526Z,82.42
2018-05-26T00:21:18.867Z,83.19
2018-05-26T00:23:47.882Z,82.98
2018-05-26T00:26:16.182Z,83.78
2018-05-26T00:28:44.532Z,84.09
2018-05-26T00:31:12.838Z,83.89
2018-05-26T00:33:41.141Z,84.09
2018-05-26T00:36:09.457Z,84.01
2018-05-26T00:38:37.879Z,84.64
2018-05-26T00:41:06.613Z,85.37
2018-05-26T00:43:35.730Z,86.51
2018-05-26T00:46:04.025Z,85.38
2018-05-26T00:48:33.044Z,85.70
2018-05-26T00:51:01.376Z,85.74
2018-05-26T00:53:30.410Z,85.43
2018-05-26T00:55:58.860Z,85.73
2018-05-26T00:58:27.467Z,85.27
2018-05-26T01:00:55.779Z,85.61
2018-05-26T01:03:24.147Z,85.49
2018-05-26T01:05:52.840Z,85.99
2018-05-26T01:08:21.995Z,86.85
2018-05-26T01:10:50.322Z,87.13
2018-05-26T01:13:18.633Z,87.56
2018-05-26T01:15:46.954Z,87.72
2018-05-26T01:18:15.671Z,88.33
2018-05-26T01:20:43.979Z,88.12
2018-05-26T01:23:12.289Z,88.40
2018-05-26T01:25:41.087Z,89.50
2018-05-26T01:28:09.806Z,89.01
2018-05-26T01:30:38.122Z,89.58
2018-05-26T01:33:07.201Z,89.41
2018-05-26T01:35:36.372Z,89.58
2018-05-26T01:38:05.714Z,89.85
2018-05-26T01:40:35.851Z,89.21
2018-05-26T01:43:04.192Z,89.23
2018-05-26T01:45:33.357Z,89.47
2018-05-26T01:48:01.946Z,89.59
2018-05-26T01:50:30.283Z,90.14
2018-05-26T01:52:58.588Z,90.31
2018-05-26T01:55:27.706Z,90.48
2018-05-26T01:57:56.682Z,89.95
2018-05-26T02:00:25.757Z,90.18
2018-05-26T02:02:54.699Z,90.01
2018-05-26T02:05:23.035Z,90.08
2018-05-26T02:07:51.584Z,89.62
2018-05-26T02:10:20.657Z,90.19
2018-05-26T02:12:49.593Z,90.10
2018-05-26T02:15:18.538Z,90.60
2018-05-26T02:17:46.835Z,91.34
2018-05-26T02:20:16.014Z,91.25
2018-05-26T02:22:44.320Z,90.65
2018-05-26T02:25:14.135Z,90.82
2018-05-26T02:27:44.056Z,90.54
2018-05-26T02:30:13.699Z,91.06
2018-05-26T02:32:42.016Z,90.59
2018-05-26T02:35:10.335Z,90.25
2018-05-26T02:37:38.655Z,90.51
2018-05-26T02:40:06.958Z,90.95
2018-05-26T02:42:35.290Z,90.43
2018-05-26T02:45:03.611Z,89.86
2018-05-26T02:47:31.971Z,90.11
2018-05-26T02:50:00.340Z,90.07
2018-05-26T02:52:28.642Z,89.78
2018-05-26T02:54:58.479Z,89.98
2018-05-26T02:57:27.575Z,89.62
2018-05-26T02:59:57.354Z,89.83
2018-05-26T03:02:27.030Z,90.62
2018-05-26T03:05:02.215Z,90.32
2018-05-26T03:07:36.886Z,90.17
2018-05-26T03:10:10.762Z,90.06
2018-05-26T03:12:45.497Z,90.39
2018-05-26T03:15:13.960Z,90.69
2018-05-26T03:17:44.080Z,91.10
2018-05-26T03:20:15.020Z,91.64
2018-05-26T03:22:43.330Z,91.65
2018-05-26T03:25:12.395Z,90.93
2018-05-26T03:27:42.175Z,91.30
2018-05-26T03:30:11.049Z,91.07
2018-05-26T03:32:40.828Z,91.18
2018-05-26T03:35:09.919Z,90.53
2018-05-26T03:37:38.397Z,90.32
2018-05-26T03:40:06.872Z,90.74
2018-05-26T03:42:35.868Z,91.56
2018-05-26T03:45:05.026Z,91.00
2018-05-26T03:47:33.354Z,90.71
2018-05-26T03:50:01.719Z,90.16
2018-05-26T03:52:30.111Z,90.22
2018-05-26T03:58:38.425Z,90.18
2018-05-26T04:01:06.824Z,90.38
2018-05-26T04:03:37.017Z,90.51
2018-05-26T04:06:06.147Z,90.29
2018-05-26T04:08:35.582Z,90.36
2018-05-26T04:11:04.745Z,90.64
2018-05-26T04:13:34.230Z,90.57
2018-05-26T04:16:04.414Z,90.65
2018-05-26T04:18:33.476Z,90.60
2018-05-26T04:21:01.829Z,90.69
2018-05-26T04:23:30.164Z,90.88
2018-05-26T04:25:59.553Z,90.58
2018-05-26T04:28:28.654Z,90.31
2018-05-26T04:30:57.829Z,90.42
2018-05-26T04:33:26.971Z,90.43
2018-05-26T04:35:55.269Z,90.44
2018-05-26T04:38:23.605Z,90.23
2018-05-26T04:40:52.659Z,90.31
2018-05-26T04:43:20.957Z,89.86
2018-05-26T04:45:49.324Z,89.87
2018-05-26T04:48:18.055Z,89.61
2018-05-26T04:50:49.587Z,88.98
2018-05-26T04:53:17.908Z,89.75
2018-05-26T04:55:46.244Z,89.41
2018-05-26T04:58:15.069Z,88.90
2018-05-26T05:00:44.138Z,89.02
2018-05-26T05:03:12.900Z,88.81
2018-05-26T05:05:41.245Z,89.33
2018-05-26T05:08:10.316Z,89.08
2018-05-26T05:10:39.418Z,88.51
2018-05-26T05:13:08.487Z,88.51
2018-05-26T05:15:36.816Z,88.56
2018-05-26T05:18:05.110Z,88.62
2018-05-26T05:20:35.023Z,88.39
2018-05-26T05:23:03.638Z,88.03
2018-05-26T05:28:04.961Z,87.23
2018-05-26T05:30:34.371Z,86.72
2018-05-26T05:33:03.425Z,86.65
2018-05-26T05:35:33.515Z,86.32
2018-05-26T05:38:02.034Z,86.93
2018-05-26T05:40:31.503Z,87.39
2018-05-26T05:42:59.813Z,88.18
2018-05-26T05:45:29.972Z,87.41
2018-05-26T05:47:58.279Z,87.07
2018-05-26T05:50:27.007Z,86.41
2018-05-26T05:52:56.065Z,87.14
2018-05-26T05:55:25.262Z,85.83
2018-05-26T05:57:54.475Z,85.24
2018-05-26T06:00:23.168Z,84.49
2018-05-26T06:02:52.281Z,84.19
2018-05-26T06:05:21.346Z,84.16
2018-05-26T06:07:50.510Z,84.30
2018-05-26T06:10:19.622Z,83.67
2018-05-26T06:12:47.931Z,83.88
2018-05-26T06:15:17.053Z,82.30
2018-05-26T06:17:47.982Z,81.41
2018-05-26T06:20:17.797Z,81.19
2018-05-26T06:22:46.934Z,80.69
2018-05-26T06:25:15.580Z,81.01
2018-05-26T06:27:45.502Z,80.79
2018-05-26T06:30:17.023Z,80.64
2018-05-26T06:32:46.137Z,79.29
2018-05-26T06:35:16.163Z,79.33
2018-05-26T06:37:46.018Z,78.84
2018-05-26T06:40:16.330Z,78.26
2018-05-26T06:42:44.788Z,78.63
2018-05-26T06:45:16.361Z,77.49
2018-05-26T06:47:47.783Z,77.43
2018-05-26T06:50:17.986Z,77.98
2018-05-26T06:52:46.517Z,76.91
2018-05-26T06:55:15.590Z,77.20
2018-05-26T06:57:45.143Z,76.36
2018-05-26T07:00:14.077Z,76.74
2018-05-26T07:02:42.907Z,74.84
2018-05-26T07:05:11.980Z,74.39
2018-05-26T07:07:40.470Z,72.77
2018-05-26T07:10:09.525Z,72.77
2018-05-26T07:12:37.917Z,72.37
2018-05-26T07:15:06.218Z,72.72
2018-05-26T07:17:35.286Z,71.89
2018-05-26T07:20:04.892Z,72.03
2018-05-26T07:22:33.191Z,71.37
2018-05-26T07:25:02.020Z,71.63
2018-05-26T07:27:30.354Z,70.65
2018-05-26T07:29:59.308Z,70.64
2018-05-26T07:32:28.471Z,70.29
2018-05-26T07:34:57.554Z,68.77
2018-05-26T07:37:26.829Z,69.18
2018-05-26T07:39:55.818Z,67.84
2018-05-26T07:42:25.485Z,67.60
2018-05-26T07:44:54.576Z,67.86
2018-05-26T07:47:24.334Z,69.16
2018-05-26T07:49:53.374Z,67.29
2018-05-26T07:52:22.537Z,65.97
2018-05-26T07:54:50.825Z,67.17
2018-05-26T07:57:19.105Z,66.45
2018-05-26T07:59:47.453Z,66.44
2018-05-26T08:02:15.760Z,67.41
2018-05-26T08:04:44.151Z,66.69
2018-05-26T08:07:12.893Z,66.61
2018-05-26T08:09:41.309Z,65.74
2018-05-26T08:12:09.603Z,66.18
2018-05-26T08:14:37.899Z,64.16
2018-05-26T08:17:08.393Z,64.63
2018-05-26T08:19:36.684Z,66.53
2018-05-26T08:22:05.863Z,65.41
2018-05-26T08:24:34.881Z,65.06
2018-05-26T08:27:04.058Z,63.41
2018-05-26T08:29:32.346Z,62.15
2018-05-26T08:32:00.710Z,61.43
2018-05-26T08:34:29.030Z,62.61
2018-05-26T08:36:58.737Z,63.44
2018-05-26T08:39:27.953Z,63.77
2018-05-26T08:41:57.526Z,62.40
2018-05-26T08:44:27.652Z,61.00
2018-05-26T08:46:56.706Z,61.06
2018-05-26T08:49:26.700Z,60.46
2018-05-26T08:51:55.797Z,61.57
2018-05-26T08:54:24.191Z,59.92
2018-05-26T08:56:53.231Z,58.83
2018-05-26T08:59:21.600Z,56.62
2018-05-26T09:01:51.118Z,57.44
2018-05-26T09:04:19.440Z,55.71
2018-05-26T09:06:48.080Z,56.96
2018-05-26T09:09:17.288Z,56.77
2018-05-26T09:11:46.307Z,58.32
2018-05-26T09:14:15.676Z,56.83
2018-05-26T09:16:43.962Z,56.73
2018-05-26T09:19:13.769Z,54.18
2018-05-26T09:21:42.122Z,55.18
2018-05-26T09:24:10.410Z,55.16
2018-05-26T09:26:38.695Z,54.43
2018-05-26T09:29:07.076Z,54.77
2018-05-26T09:31:35.371Z,55.26
2018-05-26T09:34:06.374Z,55.46
2018-05-26T09:36:34.682Z,56.20
2018-05-26T09:39:03.759Z,54.92
2018-05-26T09:41:32.318Z,55.27
2018-05-26T09:44:00.611Z,54.13
2018-05-26T09:46:28.922Z,54.10
2018-05-26T09:48:59.558Z,54.58
2018-05-26T09:51:28.089Z,53.70
2018-05-26T09:53:56.758Z,54.95
2018-05-26T09:56:25.895Z,55.61
2018-05-26T09:58:54.828Z,54.23
2018-05-26T10:01:23.578Z,55.07
2018-05-26T10:03:51.939Z,53.93
2018-05-26T10:06:20.344Z,52.68
2018-05-26T10:08:50.656Z,55.29
2018-05-26T10:11:19.169Z,54.67
2018-05-26T10:13:48.862Z,54.46
2018-05-26T10:16:17.369Z,50.90
2018-05-26T10:18:46.559Z,52.06
2018-05-26T10:21:15.671Z,49.52
2018-05-26T10:23:44.128Z,49.08
2018-05-26T10:26:12.762Z,50.35
2018-05-26T10:28:41.066Z,51.99
2018-05-26T10:31:09.376Z,52.58
2018-05-26T10:33:37.689Z,49.27
2018-05-26T10:36:06.853Z,51.58
2018-05-26T10:38:35.220Z,50.83
2018-05-26T10:41:03.543Z,52.31
2018-05-26T10:43:32.601Z,48.82
2018-05-26T10:46:18.794Z,47.53
2018-05-26T10:48:47.267Z,46.11
2018-05-26T10:51:15.576Z,46.73
2018-05-26T10:53:44.663Z,47.95
2018-05-26T10:56:14.060Z,45.88
2018-05-26T10:58:42.391Z,48.34
2018-05-26T11:01:11.225Z,47.86
2018-05-26T11:03:40.098Z,48.16
2018-05-26T11:06:08.389Z,48.10
2018-05-26T11:08:37.299Z,47.29
2018-05-26T11:11:05.605Z,49.17
2018-05-26T11:13:34.773Z,45.99
2018-05-26T11:16:03.840Z,46.34
2018-05-26T11:18:32.168Z,44.98
2018-05-26T11:21:01.096Z,45.80
2018-05-26T11:23:30.053Z,46.39
2018-05-26T11:25:58.988Z,45.25
2018-05-26T11:28:27.327Z,46.02
2018-05-26T11:30:56.091Z,43.65
2018-05-26T11:33:24.709Z,45.65
2018-05-26T11:35:53.023Z,41.67
2018-05-26T11:38:21.366Z,41.88
2018-05-26T11:40:50.584Z,39.90
2018-05-26T11:43:19.657Z,41.97
2018-05-26T11:45:47.982Z,41.25
2018-05-26T11:48:16.958Z,42.39
2018-05-26T11:50:46.970Z,43.60
2018-05-26T11:53:16.146Z,42.22
2018-05-26T11:55:45.315Z,42.20
2018-05-26T11:58:13.604Z,43.14
2018-05-26T12:00:48.706Z,40.91
2018-05-26T12:03:18.032Z,41.78
2018-05-26T12:05:46.315Z,41.65
2018-05-26T12:08:15.426Z,42.59
2018-05-26T12:10:44.074Z,41.57
2018-05-26T12:13:12.379Z,41.39
2018-05-26T12:15:41.280Z,42.42
2018-05-26T12:18:09.611Z,39.03
2018-05-26T12:20:39.208Z,38.89
2018-05-26T12:23:09.085Z,34.68
2018-05-26T12:25:37.385Z,36.64
2018-05-26T12:28:06.647Z,35.30
2018-05-26T12:30:34.951Z,33.00
2018-05-26T12:33:03.475Z,33.81
2018-05-26T12:35:31.906Z,31.99
2018-05-26T12:38:00.786Z,30.93
2018-05-26T12:40:29.198Z,32.58
2018-05-26T12:42:59.019Z,31.30
2018-05-26T12:45:28.220Z,31.28
2018-05-26T12:47:57.273Z,29.48
2018-05-26T12:50:25.556Z,29.41
2018-05-26T12:52:54.588Z,29.04
2018-05-26T12:55:23.740Z,28.99
2018-05-26T12:57:52.779Z,28.05
2018-05-26T13:00:22.042Z,29.51
2018-05-26T13:02:51.841Z,29.30
2018-05-26T13:05:22.932Z,29.53
2018-05-26T13:07:53.010Z,31.71
2018-05-26T13:10:22.610Z,28.99
2018-05-26T13:12:50.932Z,27.99
2018-05-26T13:15:19.227Z,29.11
2018-05-26T13:17:48.290Z,29.62
2018-05-26T13:20:16.601Z,27.47
2018-05-26T13:22:46.206Z,26.74
2018-05-26T13:25:16.202Z,28.11
2018-05-26T13:27:44.782Z,28.02
2018-05-26T13:30:15.378Z,29.27
2018-05-26T13:32:44.574Z,29.62
2018-05-26T13:35:12.872Z,27.58
2018-05-26T13:37:42.264Z,27.43
2018-05-26T13:40:12.316Z,24.80
2018-05-26T13:42:41.119Z,25.60
2018-05-26T13:45:09.449Z,24.13
2018-05-26T13:47:39.219Z,26.37
2018-05-26T13:50:08.990Z,25.75
2018-05-26T13:52:37.295Z,27.38
2018-05-26T13:55:05.687Z,26.54
2018-05-26T13:57:35.338Z,26.15
2018-05-26T14:00:03.627Z,27.15
2018-05-26T14:02:32.830Z,26.70
2018-05-26T14:05:02.319Z,26.71
2018-05-26T14:07:31.268Z,26.42
2018-05-26T14:09:59.881Z,27.80
2018-05-26T14:12:29.361Z,27.30
2018-05-26T14:14:57.944Z,29.04
2018-05-26T14:17:26.463Z,30.01
2018-05-26T14:19:55.381Z,27.82
2018-05-26T14:22:24.504Z,28.89
2018-05-26T14:24:53.400Z,27.93
2018-05-26T14:27:22.505Z,28.39
2018-05-26T14:29:50.837Z,28.09
2018-05-26T14:32:19.129Z,29.01
2018-05-26T14:34:48.027Z,29.29
2018-05-26T14:37:16.337Z,28.95
2018-05-26T14:39:44.887Z,29.33
2018-05-26T14:42:13.424Z,29.66
2018-05-26T14:44:43.094Z,29.21
2018-05-26T14:47:11.483Z,29.92
2018-05-26T14:49:39.838Z,29.56
2018-05-26T14:52:08.942Z,29.04
2018-05-26T14:54:37.532Z,30.95
2018-05-26T14:57:05.859Z,30.16
2018-05-26T14:59:34.647Z,30.60
2018-05-26T15:02:05.055Z,28.45
2018-05-26T15:04:35.307Z,31.83
2018-05-26T15:07:04.139Z,30.27
2018-05-26T15:09:32.545Z,30.02
2018-05-26T15:12:00.864Z,31.43
2018-05-26T15:14:29.202Z,31.35
2018-05-26T15:16:57.500Z,29.47
2018-05-26T15:19:26.572Z,29.77
2018-05-26T15:21:54.929Z,29.47
2018-05-26T15:24:23.254Z,30.47
2018-05-26T15:26:52.402Z,28.07
2018-05-26T15:29:20.802Z,30.13
2018-05-26T15:31:49.163Z,30.31
2018-05-26T15:34:17.485Z,30.83
2018-05-26T15:36:46.635Z,30.73
2018-05-26T15:39:15.028Z,29.90
2018-05-26T15:41:43.941Z,30.66
2018-05-26T15:44:12.259Z,31.36
2018-05-26T15:46:41.059Z,31.38
2018-05-26T15:49:09.569Z,31.91
2018-05-26T15:51:39.054Z,33.49
2018-05-26T15:54:07.946Z,32.73
2018-05-26T15:56:36.884Z,32.50
2018-05-26T15:59:05.225Z,32.02
2018-05-26T16:01:33.828Z,31.70
2018-05-26T16:04:02.150Z,33.00
2018-05-26T16:06:31.213Z,33.98
2018-05-26T16:08:59.898Z,33.97
2018-05-26T16:11:29.327Z,34.22
2018-05-26T16:13:58.388Z,34.37
2018-05-26T16:16:26.793Z,35.11
2018-05-26T16:18:55.115Z,34.94
2018-05-26T16:21:24.156Z,34.74
2018-05-26T16:23:52.459Z,34.95
2018-05-26T16:26:21.549Z,34.52
2018-05-26T16:28:50.630Z,35.16
2018-05-26T16:31:19.104Z,35.51
2018-05-26T16:33:47.392Z,34.75
2018-05-26T16:36:16.278Z,35.00
2018-05-26T16:38:45.209Z,36.28
2018-05-26T16:41:14.432Z,36.54
2018-05-26T16:43:42.933Z,35.91
2018-05-26T16:46:11.313Z,36.22
2018-05-26T16:48:39.618Z,36.85
2018-05-26T16:51:07.995Z,36.54
2018-05-26T16:53:36.285Z,37.32
2018-05-26T16:56:05.872Z,38.19
2018-05-26T16:58:34.254Z,37.42
2018-05-26T17:01:02.534Z,39.16
2018-05-26T17:03:30.835Z,39.32
2018-05-26T17:05:59.901Z,39.65
2018-05-26T17:08:28.342Z,39.99
2018-05-26T17:10:57.184Z,41.22
2018-05-26T17:13:25.536Z,40.81
2018-05-26T17:15:54.359Z,43.01
2018-05-26T17:18:22.728Z,43.94
2018-05-26T17:20:52.540Z,45.07
2018-05-26T17:23:20.841Z,45.82
2018-05-26T17:25:50.013Z,45.61
2018-05-26T17:28:18.305Z,46.94
2018-05-26T17:30:46.944Z,46.79
2018-05-26T17:33:15.866Z,46.67
2018-05-26T17:35:44.160Z,47.27
2018-05-26T17:38:12.479Z,47.77
2018-05-26T17:40:41.009Z,48.21
2018-05-26T17:43:09.314Z,48.61
2018-05-26T17:45:38.379Z,48.99
2018-05-26T17:48:06.695Z,48.63
2018-05-26T17:50:36.158Z,49.12
2018-05-26T17:53:04.476Z,48.82
2018-05-26T17:55:33.633Z,48.94
2018-05-26T17:58:02.014Z,48.31
2018-05-26T18:00:30.307Z,48.27
2018-05-26T18:03:00.243Z,48.00
2018-05-26T18:05:29.035Z,47.40
2018-05-26T18:07:58.102Z,47.08
2018-05-26T18:10:26.881Z,47.63
2018-05-26T18:12:55.541Z,47.94
2018-05-26T18:15:23.842Z,48.90
2018-05-26T18:17:52.167Z,49.55
2018-05-26T18:20:25.041Z,50.65
2018-05-26T18:22:53.503Z,50.76
2018-05-26T18:25:22.009Z,51.79
2018-05-26T18:27:50.316Z,52.45
2018-05-26T18:30:19.684Z,52.41
2018-05-26T18:32:48.510Z,53.09
2018-05-26T18:35:16.834Z,53.09
2018-05-26T18:37:46.234Z,53.08
2018-05-26T18:40:14.549Z,53.91
2018-05-26T18:42:44.007Z,53.71
2018-05-26T18:45:12.412Z,54.16
2018-05-26T18:47:42.306Z,53.63
2018-05-26T18:50:11.665Z,54.13
2018-05-26T18:52:40.712Z,53.85
2018-05-26T18:55:09.038Z,53.87
2018-05-26T18:57:38.498Z,54.21
2018-05-26T19:00:07.402Z,55.75
2018-05-26T19:02:37.464Z,56.07
2018-05-26T19:05:05.894Z,57.45
2018-05-26T19:07:34.218Z,58.95
2018-05-26T19:10:03.269Z,58.65
2018-05-26T19:12:31.586Z,59.84
2018-05-26T19:15:01.066Z,60.28
2018-05-26T19:17:31.582Z,60.81
2018-05-26T19:19:59.916Z,59.48
2018-05-26T19:22:28.754Z,59.59
2018-05-26T19:24:57.195Z,59.51
2018-05-26T19:27:25.512Z,60.01
2018-05-26T19:29:53.923Z,60.13
2018-05-26T19:32:24.796Z,60.42
2018-05-26T19:34:53.211Z,60.35
2018-05-26T19:37:22.063Z,61.06
2018-05-26T19:39:50.402Z,61.97
2018-05-26T19:42:18.816Z,60.52
2018-05-26T19:44:47.235Z,61.04
2018-05-26T19:47:15.539Z,61.31
2018-05-26T19:49:46.590Z,60.41
2018-05-26T19:52:16.008Z,60.82
2018-05-26T19:54:45.650Z,59.39
2018-05-26T19:57:14.154Z,59.78
2018-05-26T19:59:42.579Z,60.09
2018-05-26T20:02:11.679Z,60.83
2018-05-26T20:04:40.129Z,59.78
2018-05-26T20:07:08.871Z,60.29
2018-05-26T20:09:38.757Z,60.38
2018-05-26T20:12:07.155Z,60.51
2018-05-26T20:14:35.487Z,60.67
2018-05-26T20:17:03.794Z,60.10
2018-05-26T20:19:34.346Z,59.73
2018-05-26T20:22:02.642Z,60.38
2018-05-26T20:24:30.949Z,60.94
2018-05-26T20:26:59.659Z,60.56
2018-05-26T20:29:28.015Z,61.43
2018-05-26T20:31:57.039Z,62.02
2018-05-26T20:34:27.172Z,62.25
2018-05-26T20:36:55.494Z,62.59
2018-05-26T20:39:24.121Z,63.04
2018-05-26T20:41:52.510Z,64.10
2018-05-26T20:44:22.163Z,64.72
2018-05-26T20:46:51.380Z,63.89
2018-05-26T20:49:21.288Z,64.05
2018-05-26T20:51:49.606Z,63.54
2018-05-26T20:54:17.931Z,64.99
2018-05-26T20:56:46.270Z,64.98
2018-05-26T20:59:15.574Z,64.44
2018-05-26T21:01:44.659Z,64.53
2018-05-26T21:04:13.009Z,64.68
2018-05-26T21:06:41.321Z,65.36
2018-05-26T21:09:10.388Z,66.12
2018-05-26T21:11:38.679Z,66.75
2018-05-26T21:14:07.361Z,66.60
2018-05-26T21:16:37.653Z,66.94
2018-05-26T21:19:06.751Z,67.81
2018-05-26T21:21:36.441Z,66.80
2018-05-26T21:24:05.394Z,67.59
2018-05-26T21:26:34.574Z,67.65
2018-05-26T21:29:03.294Z,67.73
2018-05-26T21:31:32.514Z,68.76
2018-05-26T21:34:02.669Z,68.46
2018-05-26T21:36:31.060Z,68.87
2018-05-26T21:39:01.029Z,68.36
2018-05-26T21:41:30.879Z,69.75
2018-05-26T21:43:59.675Z,70.09
2018-05-26T21:46:28.816Z,69.72
2018-05-26T21:48:58.002Z,69.88
2018-05-26T21:51:26.282Z,70.06
2018-05-26T21:53:56.091Z,70.91
2018-05-26T21:56:26.736Z,70.53
2018-05-26T21:58:56.530Z,70.83
2018-05-26T22:01:24.826Z,70.88
2018-05-26T22:03:53.918Z,71.07
2018-05-26T22:06:23.506Z,71.21
2018-05-26T22:08:51.819Z,70.97
2018-05-26T22:11:21.006Z,70.91
2018-05-26T22:13:50.496Z,71.42
2018-05-26T22:16:19.759Z,71.57
2018-05-26T22:18:48.342Z,71.37
2018-05-26T22:21:16.826Z,70.96
2018-05-26T22:23:45.138Z,71.55
2018-05-26T22:26:14.149Z,71.47
2018-05-26T22:28:43.902Z,72.23
2018-05-26T22:31:13.729Z,72.78
2018-05-26T22:33:42.927Z,73.30
2018-05-26T22:36:11.571Z,73.16
2018-05-26T22:38:41.241Z,73.20
2018-05-26T22:41:09.911Z,73.98
2018-05-26T22:43:38.765Z,74.11
2018-05-26T22:46:07.827Z,74.76
2018-05-26T22:48:36.171Z,74.47
2018-05-26T22:51:05.369Z,74.16
2018-05-26T22:53:33.795Z,74.27
2018-05-26T22:56:02.305Z,73.94
2018-05-26T22:58:30.664Z,74.16
2018-05-26T23:00:58.969Z,74.73
2018-05-26T23:03:28.056Z,74.18
2018-05-26T23:05:57.457Z,75.03
2018-05-26T23:08:26.622Z,75.03
2018-05-26T23:10:55.300Z,74.93
2018-05-26T23:13:23.592Z,74.69
2018-05-26T23:15:51.987Z,74.63
2018-05-26T23:18:20.840Z,74.48
2018-05-26T23:20:49.151Z,75.30
2018-05-26T23:23:17.457Z,75.29
2018-05-26T23:25:46.815Z,75.01
2018-05-26T23:28:15.118Z,74.56
2018-05-26T23:30:43.482Z,75.11
2018-05-26T23:33:12.585Z,74.89
2018-05-26T23:35:40.894Z,75.23
2018-05-26T23:38:10.824Z,75.79
2018-05-26T23:40:39.153Z,75.53
2018-05-26T23:43:07.530Z,76.38
2018-05-26T23:45:36.043Z,76.92
2018-05-26T23:48:05.114Z,76.74
2018-05-26T23:50:33.869Z,77.15
2018-05-26T23:53:02.172Z,78.00
2018-05-26T23:55:30.788Z,77.31
2018-05-26T23:57:59.705Z,78.45
